Time,TemperatureF,DewpointF,PressureIn,WindDirection,WindDirectionDegrees,WindSpeedMPH,WindSpeedGustMPH,Humidity,HourlyPrecipIn,Conditions,Clouds,dailyrainin,SolarRadiationWatts/m^2,SoftwareType,DateUTC
2013-06-29 00:01:00,71.0,59.0,-100.00,WNW,300,4.0,6.0,65,0.00,,,0.47,0.000000,,2013-06-29 05:01:00,
2013-06-29 00:11:00,71.0,59.0,-100.00,WNW,300,4.0,6.0,65,0.00,,,0.47,0.000000,,2013-06-29 05:11:00,
2013-06-29 00:42:00,70.0,59.0,-100.00,WNW,290,3.0,7.0,67,0.00,,,0.47,0.000000,,2013-06-29 05:42:00,
2013-06-29 00:52:00,70.0,59.0,-100.00,WNW,290,3.0,7.0,67,0.00,,,0.47,0.000000,,2013-06-29 05:52:00,
2013-06-29 01:01:00,70.0,59.0,-100.00,WNW,290,3.0,7.0,67,0.00,,,0.47,0.000000,,2013-06-29 06:01:00,
2013-06-29 01:12:00,70.0,59.0,-100.00,WNW,290,3.0,7.0,67,0.00,,,0.47,0.000000,,2013-06-29 06:12:00,
2013-06-29 01:43:00,69.0,58.0,-100.00,West,273,4.0,6.0,69,0.00,,,0.47,0.000000,,2013-06-29 06:43:00,
2013-06-29 01:53:00,69.0,58.0,-100.00,West,273,4.0,6.0,69,0.00,,,0.47,0.000000,,2013-06-29 06:53:00,
2013-06-29 02:02:00,69.0,58.0,-100.00,West,273,4.0,6.0,69,0.00,,,0.47,0.000000,,2013-06-29 07:02:00,
2013-06-29 02:12:00,69.0,58.0,-100.00,West,273,4.0,6.0,69,0.00,,,0.47,0.000000,,2013-06-29 07:12:00,
2013-06-29 02:43:00,68.0,59.0,-100.00,WNW,282,3.0,5.0,72,0.00,,,0.07,0.000000,,2013-06-29 07:43:00,
2013-06-29 02:53:00,68.0,59.0,-100.00,WNW,282,3.0,5.0,72,0.00,,,0.07,0.000000,,2013-06-29 07:53:00,
2013-06-29 03:01:00,68.0,59.0,-100.00,WNW,282,3.0,5.0,72,0.00,,,0.07,0.000000,,2013-06-29 08:01:00,
2013-06-29 03:12:00,68.0,59.0,-100.00,WNW,282,3.0,5.0,72,0.00,,,0.07,0.000000,,2013-06-29 08:12:00,
2013-06-29 03:43:00,66.0,59.0,-100.00,West,281,4.0,6.0,77,0.00,,,0.00,0.000000,,2013-06-29 08:43:00,
2013-06-29 03:52:00,66.0,59.0,-100.00,West,281,4.0,6.0,77,0.00,,,0.00,0.000000,,2013-06-29 08:52:00,
2013-06-29 04:02:00,66.0,59.0,-100.00,West,281,4.0,6.0,77,0.00,,,0.00,0.000000,,2013-06-29 09:02:00,
2013-06-29 04:12:00,66.0,59.0,-100.00,West,281,4.0,6.0,77,0.00,,,0.00,0.000000,,2013-06-29 09:12:00,
2013-06-29 04:42:00,66.0,58.0,-100.00,West,279,5.0,7.0,75,0.00,,,0.00,0.000000,,2013-06-29 09:42:00,
2013-06-29 04:53:00,66.0,58.0,-100.00,West,279,5.0,7.0,75,0.00,,,0.00,0.000000,,2013-06-29 09:53:00,
2013-06-29 05:01:00,66.0,58.0,-100.00,West,279,5.0,7.0,75,0.00,,,0.00,0.000000,,2013-06-29 10:01:00,
2013-06-29 05:11:00,66.0,58.0,-100.00,West,279,5.0,7.0,75,0.00,,,0.00,0.000000,,2013-06-29 10:11:00,
2013-06-29 05:43:00,66.0,57.0,-100.00,WNW,291,5.0,8.0,74,0.00,,,0.00,0.000000,,2013-06-29 10:43:00,
2013-06-29 05:53:00,66.0,57.0,-100.00,WNW,291,5.0,8.0,74,0.00,,,0.00,0.000000,,2013-06-29 10:53:00,
2013-06-29 06:02:00,66.0,57.0,-100.00,WNW,291,5.0,8.0,74,0.00,,,0.00,0.000000,,2013-06-29 11:02:00,
2013-06-29 06:11:00,66.0,57.0,-100.00,WNW,291,5.0,8.0,74,0.00,,,0.00,0.000000,,2013-06-29 11:11:00,
2013-06-29 06:43:00,65.0,58.0,-100.00,West,278,4.0,8.0,77,0.00,,,0.00,5.000000,,2013-06-29 11:43:00,
2013-06-29 06:53:00,65.0,58.0,-100.00,West,278,4.0,8.0,77,0.00,,,0.00,5.000000,,2013-06-29 11:53:00,
2013-06-29 07:02:00,65.0,58.0,-100.00,West,278,4.0,8.0,77,0.00,,,0.00,5.000000,,2013-06-29 12:02:00,
2013-06-29 07:12:00,65.0,58.0,-100.00,West,278,4.0,8.0,77,0.00,,,0.00,5.000000,,2013-06-29 12:12:00,
2013-06-29 07:43:00,67.0,59.0,-100.00,WNW,302,4.0,8.0,75,0.00,,,0.00,106.000000,,2013-06-29 12:43:00,
2013-06-29 07:53:00,67.0,59.0,-100.00,WNW,302,4.0,8.0,75,0.00,,,0.00,106.000000,,2013-06-29 12:53:00,
2013-06-29 08:02:00,67.0,59.0,-100.00,WNW,302,4.0,8.0,75,0.00,,,0.00,106.000000,,2013-06-29 13:02:00,
2013-06-29 08:11:00,67.0,59.0,-100.00,WNW,302,4.0,8.0,75,0.00,,,0.00,106.000000,,2013-06-29 13:11:00,
2013-06-29 08:43:00,71.0,60.0,-100.00,WNW,303,6.0,11.0,68,0.00,,,0.00,310.000000,,2013-06-29 13:43:00,
2013-06-29 08:53:00,71.0,60.0,-100.00,WNW,303,6.0,11.0,68,0.00,,,0.00,310.000000,,2013-06-29 13:53:00,
2013-06-29 09:02:00,71.0,60.0,-100.00,WNW,303,6.0,11.0,68,0.00,,,0.00,310.000000,,2013-06-29 14:02:00,
2013-06-29 09:12:00,71.0,60.0,-100.00,WNW,303,6.0,11.0,68,0.00,,,0.00,310.000000,,2013-06-29 14:12:00,
2013-06-29 09:45:00,74.0,61.0,-100.00,NW,318,6.0,14.0,64,0.00,,,0.00,527.000000,,2013-06-29 14:45:00,
2013-06-29 09:53:00,74.0,61.0,-100.00,NW,318,6.0,14.0,64,0.00,,,0.00,527.000000,,2013-06-29 14:53:00,
2013-06-29 10:01:00,74.0,61.0,-100.00,NW,318,6.0,14.0,64,0.00,,,0.00,527.000000,,2013-06-29 15:01:00,
2013-06-29 10:11:00,74.0,61.0,-100.00,NW,318,6.0,14.0,64,0.00,,,0.00,527.000000,,2013-06-29 15:11:00,
2013-06-29 10:42:00,77.0,62.0,-100.00,WNW,295,6.0,13.0,60,0.00,,,0.00,699.000000,,2013-06-29 15:42:00,
2013-06-29 10:53:00,77.0,62.0,-100.00,WNW,295,6.0,13.0,60,0.00,,,0.00,699.000000,,2013-06-29 15:53:00,
2013-06-29 11:02:00,77.0,62.0,-100.00,WNW,295,6.0,13.0,60,0.00,,,0.00,699.000000,,2013-06-29 16:02:00,
2013-06-29 11:12:00,77.0,62.0,-100.00,WNW,295,6.0,13.0,60,0.00,,,0.00,699.000000,,2013-06-29 16:12:00,
2013-06-29 11:34:00,78.0,61.0,-100.00,WNW,293,11.0,17.0,55,0.00,,,0.00,903.000000,,2013-06-29 16:34:00,
2013-06-29 11:43:00,78.0,61.0,-100.00,WNW,293,11.0,17.0,55,0.00,,,0.00,903.000000,,2013-06-29 16:43:00,
2013-06-29 11:53:00,78.0,61.0,-100.00,WNW,293,11.0,17.0,55,0.00,,,0.00,903.000000,,2013-06-29 16:53:00,
2013-06-29 12:01:00,78.0,61.0,-100.00,WNW,293,11.0,17.0,55,0.00,,,0.00,903.000000,,2013-06-29 17:01:00,
2013-06-29 12:12:00,78.0,61.0,-100.00,WNW,293,11.0,17.0,55,0.00,,,0.00,903.000000,,2013-06-29 17:12:00,
2013-06-29 12:34:00,80.0,60.0,-100.00,WNW,302,11.0,22.0,51,0.00,,,0.00,969.000000,,2013-06-29 17:34:00,
2013-06-29 12:42:00,80.0,60.0,-100.00,WNW,302,11.0,22.0,51,0.00,,,0.00,969.000000,,2013-06-29 17:42:00,
2013-06-29 12:53:00,80.0,60.0,-100.00,WNW,302,11.0,22.0,51,0.00,,,0.00,969.000000,,2013-06-29 17:53:00,
2013-06-29 13:01:00,80.0,60.0,-100.00,WNW,302,11.0,22.0,51,0.00,,,0.00,969.000000,,2013-06-29 18:01:00,
2013-06-29 13:12:00,80.0,60.0,-100.00,WNW,302,11.0,22.0,51,0.00,,,0.00,969.000000,,2013-06-29 18:12:00,
2013-06-29 13:43:00,81.0,59.0,-100.00,NW,311,11.0,23.0,48,0.00,,,0.00,1135.000000,,2013-06-29 18:43:00,
2013-06-29 13:53:00,81.0,59.0,-100.00,NW,311,11.0,23.0,48,0.00,,,0.00,1135.000000,,2013-06-29 18:53:00,
2013-06-29 14:01:00,81.0,59.0,-100.00,NW,311,11.0,23.0,48,0.00,,,0.00,1135.000000,,2013-06-29 19:01:00,
2013-06-29 14:12:00,81.0,59.0,-100.00,NW,311,11.0,23.0,48,0.00,,,0.00,1135.000000,,2013-06-29 19:12:00,
2013-06-29 14:43:00,81.0,58.0,-100.00,NW,313,10.0,20.0,45,0.00,,,0.00,920.000000,,2013-06-29 19:43:00,
2013-06-29 14:54:00,81.0,58.0,-100.00,NW,313,10.0,20.0,45,0.00,,,0.00,920.000000,,2013-06-29 19:54:00,
2013-06-29 15:02:00,81.0,58.0,-100.00,NW,313,10.0,20.0,45,0.00,,,0.00,920.000000,,2013-06-29 20:02:00,
2013-06-29 15:11:00,81.0,58.0,-100.00,NW,313,10.0,20.0,45,0.00,,,0.00,920.000000,,2013-06-29 20:11:00,
2013-06-29 15:33:00,82.0,57.0,-100.00,WNW,297,10.0,19.0,43,0.00,,,-99.99,845.000000,,2013-06-29 20:33:00,
2013-06-29 15:43:00,82.0,57.0,-100.00,WNW,297,10.0,19.0,43,0.00,,,-99.99,845.000000,,2013-06-29 20:43:00,
2013-06-29 15:52:00,82.0,57.0,-100.00,WNW,297,10.0,19.0,43,0.00,,,-99.99,845.000000,,2013-06-29 20:52:00,
2013-06-29 16:02:00,82.0,57.0,-100.00,WNW,297,10.0,19.0,43,0.00,,,-99.99,845.000000,,2013-06-29 21:02:00,
2013-06-29 16:11:00,82.0,57.0,-100.00,WNW,297,10.0,19.0,43,0.00,,,-99.99,845.000000,,2013-06-29 21:11:00,
2013-06-29 16:42:00,80.0,59.0,-100.00,NW,317,7.0,21.0,48,0.00,,,0.00,584.000000,,2013-06-29 21:42:00,
2013-06-29 16:52:00,80.0,59.0,-100.00,NW,317,7.0,21.0,48,0.00,,,0.00,584.000000,,2013-06-29 21:52:00,
2013-06-29 17:01:00,80.0,59.0,-100.00,NW,317,7.0,21.0,48,0.00,,,0.00,584.000000,,2013-06-29 22:01:00,
2013-06-29 17:11:00,80.0,59.0,-100.00,NW,317,7.0,21.0,48,0.00,,,0.00,584.000000,,2013-06-29 22:11:00,
2013-06-29 17:43:00,80.0,57.0,-100.00,NW,307,10.0,20.0,45,0.00,,,-99.99,560.000000,,2013-06-29 22:43:00,
2013-06-29 17:53:00,80.0,57.0,-100.00,NW,307,10.0,20.0,45,0.00,,,-99.99,560.000000,,2013-06-29 22:53:00,
2013-06-29 18:02:00,80.0,57.0,-100.00,NW,307,10.0,20.0,45,0.00,,,-99.99,560.000000,,2013-06-29 23:02:00,
2013-06-29 18:12:00,80.0,57.0,-100.00,NW,307,10.0,20.0,45,0.00,,,-99.99,560.000000,,2013-06-29 23:12:00,
2013-06-29 18:43:00,72.0,52.0,-100.00,NNW,329,11.0,24.0,49,0.02,,,0.02,343.000000,,2013-06-29 23:43:00,
2013-06-29 18:53:00,72.0,52.0,-100.00,NNW,329,11.0,24.0,49,0.02,,,0.02,343.000000,,2013-06-29 23:53:00,
2013-06-29 19:02:00,72.0,52.0,-100.00,NNW,329,11.0,24.0,49,0.02,,,0.02,343.000000,,2013-06-30 00:02:00,
2013-06-29 19:12:00,72.0,52.0,-100.00,NNW,329,11.0,24.0,49,0.02,,,0.02,343.000000,,2013-06-30 00:12:00,
2013-06-29 20:33:00,69.0,62.0,-100.00,NW,314,6.0,14.0,79,-99.99,,,0.06,67.000000,,2013-06-30 01:33:00,
2013-06-29 20:44:00,69.0,62.0,-100.00,NW,314,6.0,14.0,79,-99.99,,,0.06,67.000000,,2013-06-30 01:44:00,
2013-06-29 20:53:00,69.0,62.0,-100.00,NW,314,6.0,14.0,79,-99.99,,,0.06,67.000000,,2013-06-30 01:53:00,
2013-06-29 21:02:00,69.0,62.0,-100.00,NW,314,6.0,14.0,79,-99.99,,,0.06,67.000000,,2013-06-30 02:02:00,
2013-06-29 21:11:00,69.0,62.0,-100.00,NW,314,6.0,14.0,79,-99.99,,,0.06,67.000000,,2013-06-30 02:11:00,
2013-06-29 21:34:00,67.0,60.0,-100.00,NW,321,5.0,11.0,78,0.00,,,0.06,5.000000,,2013-06-30 02:34:00,
2013-06-29 21:43:00,67.0,60.0,-100.00,NW,321,5.0,11.0,78,0.00,,,0.06,5.000000,,2013-06-30 02:43:00,
2013-06-29 21:53:00,67.0,60.0,-100.00,NW,321,5.0,11.0,78,0.00,,,0.06,5.000000,,2013-06-30 02:53:00,
2013-06-29 22:01:00,67.0,60.0,-100.00,NW,321,5.0,11.0,78,0.00,,,0.06,5.000000,,2013-06-30 03:01:00,
2013-06-29 22:12:00,67.0,60.0,-100.00,NW,321,5.0,11.0,78,0.00,,,0.06,5.000000,,2013-06-30 03:12:00,
2013-06-29 22:43:00,67.0,61.0,-100.00,NNW,346,4.0,8.0,80,0.00,,,0.06,0.000000,,2013-06-30 03:43:00,
2013-06-29 22:53:00,67.0,61.0,-100.00,NNW,346,4.0,8.0,80,0.00,,,0.06,0.000000,,2013-06-30 03:53:00,
2013-06-29 23:01:00,67.0,61.0,-100.00,NNW,346,4.0,8.0,80,0.00,,,0.06,0.000000,,2013-06-30 04:01:00,
2013-06-29 23:12:00,67.0,61.0,-100.00,NNW,346,4.0,8.0,80,0.00,,,0.06,0.000000,,2013-06-30 04:12:00,
2013-06-29 23:33:00,66.0,60.0,-100.00,NNW,335,5.0,10.0,80,0.00,,,0.06,0.000000,,2013-06-30 04:33:00,
2013-06-29 23:43:00,66.0,60.0,-100.00,NNW,335,5.0,10.0,80,0.00,,,0.06,0.000000,,2013-06-30 04:43:00,
2013-06-29 23:53:00,66.0,60.0,-100.00,NNW,335,5.0,10.0,80,0.00,,,0.06,0.000000,,2013-06-30 04:53:00,